sensor_id;sensor_type;location;lat;lon;timestamp;P1;durP1;ratioP1;P2;durP2;ratioP2
25731;SDS011;13585;50.864;4.406;2023-07-13T00:00:11;2.80;;;1.02;;
25731;SDS011;13585;50.864;4.406;2023-07-13T00:02:37;3.85;;;1.00;;
25731;SDS011;13585;50.864;4.406;2023-07-13T00:05:03;3.80;;;1.17;;
25731;SDS011;13585;50.864;4.406;2023-07-13T00:07:28;4.07;;;1.20;;
25731;SDS011;13585;50.864;4.406;2023-07-13T00:09:56;2.78;;;0.90;;
25731;SDS011;13585;50.864;4.406;2023-07-13T00:12:23;5.15;;;1.42;;
25731;SDS011;13585;50.864;4.406;2023-07-13T00:14:50;3.47;;;0.80;;
25731;SDS011;13585;50.864;4.406;2023-07-13T00:17:16;3.17;;;1.20;;
25731;SDS011;13585;50.864;4.406;2023-07-13T00:19:42;2.75;;;1.20;;
25731;SDS011;13585;50.864;4.406;2023-07-13T00:22:07;2.78;;;1.00;;
25731;SDS011;13585;50.864;4.406;2023-07-13T00:24:33;3.97;;;1.25;;
25731;SDS011;13585;50.864;4.406;2023-07-13T00:27:01;4.18;;;1.20;;
25731;SDS011;13585;50.864;4.406;2023-07-13T00:29:26;4.20;;;1.20;;
25731;SDS011;13585;50.864;4.406;2023-07-13T00:31:52;3.55;;;1.00;;
25731;SDS011;13585;50.864;4.406;2023-07-13T00:34:18;3.63;;;1.10;;
25731;SDS011;13585;50.864;4.406;2023-07-13T00:36:43;4.63;;;1.35;;
25731;SDS011;13585;50.864;4.406;2023-07-13T00:39:09;5.75;;;1.35;;
25731;SDS011;13585;50.864;4.406;2023-07-13T00:41:34;3.05;;;1.15;;
25731;SDS011;13585;50.864;4.406;2023-07-13T00:44:01;4.95;;;1.23;;
25731;SDS011;13585;50.864;4.406;2023-07-13T00:46:31;3.75;;;1.10;;
25731;SDS011;13585;50.864;4.406;2023-07-13T00:48:59;3.35;;;1.33;;
25731;SDS011;13585;50.864;4.406;2023-07-13T00:51:41;4.40;;;1.45;;
25731;SDS011;13585;50.864;4.406;2023-07-13T00:54:15;5.50;;;1.33;;
25731;SDS011;13585;50.864;4.406;2023-07-13T00:56:47;3.20;;;1.23;;
25731;SDS011;13585;50.864;4.406;2023-07-13T00:59:16;5.72;;;1.25;;
25731;SDS011;13585;50.864;4.406;2023-07-13T01:01:43;5.10;;;1.60;;
25731;SDS011;13585;50.864;4.406;2023-07-13T01:04:09;3.60;;;1.20;;
25731;SDS011;13585;50.864;4.406;2023-07-13T01:06:53;2.88;;;1.08;;
25731;SDS011;13585;50.864;4.406;2023-07-13T01:09:20;5.57;;;1.30;;
25731;SDS011;13585;50.864;4.406;2023-07-13T01:11:46;2.70;;;1.02;;
25731;SDS011;13585;50.864;4.406;2023-07-13T01:14:12;4.55;;;1.08;;
25731;SDS011;13585;50.864;4.406;2023-07-13T01:16:39;6.50;;;1.52;;
25731;SDS011;13585;50.864;4.406;2023-07-13T01:19:14;8.48;;;1.55;;
25731;SDS011;13585;50.864;4.406;2023-07-13T01:22:16;3.78;;;1.25;;
25731;SDS011;13585;50.864;4.406;2023-07-13T01:24:44;5.00;;;1.25;;
25731;SDS011;13585;50.864;4.406;2023-07-13T01:27:13;3.20;;;1.08;;
25731;SDS011;13585;50.864;4.406;2023-07-13T01:29:41;4.68;;;1.13;;
25731;SDS011;13585;50.864;4.406;2023-07-13T01:32:12;3.08;;;1.30;;
25731;SDS011;13585;50.864;4.406;2023-07-13T01:34:41;4.53;;;1.30;;
25731;SDS011;13585;50.864;4.406;2023-07-13T01:37:10;7.05;;;1.23;;
25731;SDS011;13585;50.864;4.406;2023-07-13T01:39:37;3.22;;;0.90;;
25731;SDS011;13585;50.864;4.406;2023-07-13T01:42:02;4.70;;;1.35;;
25731;SDS011;13585;50.864;4.406;2023-07-13T01:44:30;6.00;;;1.48;;
25731;SDS011;13585;50.864;4.406;2023-07-13T01:46:58;4.50;;;1.30;;
25731;SDS011;13585;50.864;4.406;2023-07-13T01:49:24;3.25;;;1.35;;
25731;SDS011;13585;50.864;4.406;2023-07-13T01:51:49;5.13;;;1.27;;
25731;SDS011;13585;50.864;4.406;2023-07-13T01:54:15;3.40;;;1.27;;
25731;SDS011;13585;50.864;4.406;2023-07-13T01:56:40;5.07;;;1.55;;
25731;SDS011;13585;50.864;4.406;2023-07-13T01:59:07;5.45;;;1.60;;
25731;SDS011;13585;50.864;4.406;2023-07-13T02:01:33;4.95;;;1.00;;
25731;SDS011;13585;50.864;4.406;2023-07-13T02:03:58;5.20;;;1.27;;
25731;SDS011;13585;50.864;4.406;2023-07-13T02:06:24;6.05;;;1.50;;
25731;SDS011;13585;50.864;4.406;2023-07-13T02:08:50;4.45;;;1.55;;
25731;SDS011;13585;50.864;4.406;2023-07-13T02:11:15;7.07;;;1.42;;
25731;SDS011;13585;50.864;4.406;2023-07-13T02:13:42;4.32;;;1.30;;
25731;SDS011;13585;50.864;4.406;2023-07-13T02:16:07;4.80;;;1.50;;
25731;SDS011;13585;50.864;4.406;2023-07-13T02:18:33;4.75;;;1.42;;
25731;SDS011;13585;50.864;4.406;2023-07-13T02:20:58;4.40;;;1.23;;
25731;SDS011;13585;50.864;4.406;2023-07-13T02:23:24;4.95;;;1.38;;
25731;SDS011;13585;50.864;4.406;2023-07-13T02:25:54;5.53;;;1.20;;
25731;SDS011;13585;50.864;4.406;2023-07-13T02:28:20;4.25;;;1.10;;
25731;SDS011;13585;50.864;4.406;2023-07-13T02:30:46;5.07;;;1.48;;
25731;SDS011;13585;50.864;4.406;2023-07-13T02:33:11;5.32;;;1.33;;
25731;SDS011;13585;50.864;4.406;2023-07-13T02:35:37;4.72;;;1.55;;
25731;SDS011;13585;50.864;4.406;2023-07-13T02:38:03;5.57;;;1.48;;
25731;SDS011;13585;50.864;4.406;2023-07-13T02:40:29;5.55;;;1.30;;
25731;SDS011;13585;50.864;4.406;2023-07-13T02:42:54;4.10;;;1.33;;
25731;SDS011;13585;50.864;4.406;2023-07-13T02:45:20;5.97;;;1.40;;
25731;SDS011;13585;50.864;4.406;2023-07-13T02:47:45;5.70;;;1.45;;
25731;SDS011;13585;50.864;4.406;2023-07-13T02:50:11;3.22;;;1.30;;
25731;SDS011;13585;50.864;4.406;2023-07-13T02:52:37;4.63;;;1.30;;
25731;SDS011;13585;50.864;4.406;2023-07-13T02:55:03;4.85;;;1.38;;
25731;SDS011;13585;50.864;4.406;2023-07-13T02:57:29;4.78;;;1.40;;
25731;SDS011;13585;50.864;4.406;2023-07-13T02:59:57;6.85;;;1.80;;
25731;SDS011;13585;50.864;4.406;2023-07-13T03:02:24;7.05;;;1.33;;
25731;SDS011;13585;50.864;4.406;2023-07-13T03:04:50;5.20;;;1.50;;
25731;SDS011;13585;50.864;4.406;2023-07-13T03:07:15;6.15;;;1.70;;
25731;SDS011;13585;50.864;4.406;2023-07-13T03:09:41;4.40;;;1.33;;
25731;SDS011;13585;50.864;4.406;2023-07-13T03:12:07;7.00;;;1.60;;
25731;SDS011;13585;50.864;4.406;2023-07-13T03:14:33;4.50;;;1.63;;
25731;SDS011;13585;50.864;4.406;2023-07-13T03:16:59;4.40;;;1.55;;
25731;SDS011;13585;50.864;4.406;2023-07-13T03:19:24;5.38;;;1.48;;
25731;SDS011;13585;50.864;4.406;2023-07-13T03:21:50;6.18;;;1.63;;
25731;SDS011;13585;50.864;4.406;2023-07-13T03:24:15;3.63;;;1.33;;
25731;SDS011;13585;50.864;4.406;2023-07-13T03:26:41;5.63;;;1.55;;
25731;SDS011;13585;50.864;4.406;2023-07-13T03:29:06;6.30;;;1.70;;
25731;SDS011;13585;50.864;4.406;2023-07-13T03:31:33;4.07;;;1.50;;
25731;SDS011;13585;50.864;4.406;2023-07-13T03:34:00;6.95;;;1.60;;
25731;SDS011;13585;50.864;4.406;2023-07-13T03:36:27;8.18;;;1.90;;
25731;SDS011;13585;50.864;4.406;2023-07-13T03:38:56;5.18;;;1.40;;
25731;SDS011;13585;50.864;4.406;2023-07-13T03:41:23;6.47;;;1.70;;
25731;SDS011;13585;50.864;4.406;2023-07-13T03:43:50;4.97;;;1.52;;
25731;SDS011;13585;50.864;4.406;2023-07-13T03:46:16;7.07;;;1.33;;
25731;SDS011;13585;50.864;4.406;2023-07-13T03:48:43;6.18;;;1.42;;
25731;SDS011;13585;50.864;4.406;2023-07-13T03:51:10;4.60;;;1.33;;
25731;SDS011;13585;50.864;4.406;2023-07-13T03:53:38;3.55;;;1.33;;
25731;SDS011;13585;50.864;4.406;2023-07-13T03:56:05;5.65;;;1.40;;
25731;SDS011;13585;50.864;4.406;2023-07-13T03:58:32;5.03;;;1.42;;
25731;SDS011;13585;50.864;4.406;2023-07-13T04:01:00;4.82;;;1.40;;
25731;SDS011;13585;50.864;4.406;2023-07-13T04:03:27;6.05;;;1.67;;
25731;SDS011;13585;50.864;4.406;2023-07-13T04:05:56;3.95;;;1.40;;
25731;SDS011;13585;50.864;4.406;2023-07-13T04:08:32;5.68;;;1.63;;
25731;SDS011;13585;50.864;4.406;2023-07-13T04:10:59;7.47;;;1.90;;
25731;SDS011;13585;50.864;4.406;2023-07-13T04:13:26;4.72;;;1.52;;
25731;SDS011;13585;50.864;4.406;2023-07-13T04:15:52;7.30;;;1.65;;
25731;SDS011;13585;50.864;4.406;2023-07-13T04:18:18;6.75;;;1.40;;
25731;SDS011;13585;50.864;4.406;2023-07-13T04:20:45;5.63;;;1.55;;
25731;SDS011;13585;50.864;4.406;2023-07-13T04:23:12;6.22;;;1.50;;
25731;SDS011;13585;50.864;4.406;2023-07-13T04:25:38;5.10;;;1.70;;
25731;SDS011;13585;50.864;4.406;2023-07-13T04:28:04;5.85;;;1.50;;
25731;SDS011;13585;50.864;4.406;2023-07-13T04:30:30;5.97;;;1.60;;
25731;SDS011;13585;50.864;4.406;2023-07-13T04:32:56;5.60;;;1.23;;
25731;SDS011;13585;50.864;4.406;2023-07-13T04:35:21;9.82;;;1.90;;
25731;SDS011;13585;50.864;4.406;2023-07-13T04:37:48;8.10;;;1.98;;
25731;SDS011;13585;50.864;4.406;2023-07-13T04:40:17;5.15;;;1.88;;
25731;SDS011;13585;50.864;4.406;2023-07-13T04:42:44;4.60;;;1.40;;
25731;SDS011;13585;50.864;4.406;2023-07-13T04:45:10;5.57;;;1.65;;
25731;SDS011;13585;50.864;4.406;2023-07-13T04:47:37;6.80;;;1.83;;
25731;SDS011;13585;50.864;4.406;2023-07-13T04:50:03;8.10;;;1.88;;
25731;SDS011;13585;50.864;4.406;2023-07-13T04:52:29;6.72;;;1.70;;
25731;SDS011;13585;50.864;4.406;2023-07-13T04:54:55;6.60;;;1.80;;
25731;SDS011;13585;50.864;4.406;2023-07-13T04:57:20;5.95;;;1.52;;
25731;SDS011;13585;50.864;4.406;2023-07-13T04:59:46;6.40;;;1.60;;
25731;SDS011;13585;50.864;4.406;2023-07-13T05:02:11;8.38;;;1.63;;
25731;SDS011;13585;50.864;4.406;2023-07-13T05:04:37;6.13;;;1.65;;
25731;SDS011;13585;50.864;4.406;2023-07-13T05:07:03;6.75;;;1.65;;
25731;SDS011;13585;50.864;4.406;2023-07-13T05:09:31;10.05;;;1.98;;
25731;SDS011;13585;50.864;4.406;2023-07-13T05:11:56;7.18;;;1.70;;
25731;SDS011;13585;50.864;4.406;2023-07-13T05:14:22;6.78;;;1.63;;
25731;SDS011;13585;50.864;4.406;2023-07-13T05:16:47;5.78;;;1.80;;
25731;SDS011;13585;50.864;4.406;2023-07-13T05:19:13;6.45;;;1.98;;
25731;SDS011;13585;50.864;4.406;2023-07-13T05:21:39;4.75;;;1.42;;
25731;SDS011;13585;50.864;4.406;2023-07-13T05:24:06;8.00;;;1.95;;
25731;SDS011;13585;50.864;4.406;2023-07-13T05:26:43;4.13;;;1.50;;
25731;SDS011;13585;50.864;4.406;2023-07-13T05:29:18;7.05;;;2.15;;
25731;SDS011;13585;50.864;4.406;2023-07-13T05:31:44;6.65;;;1.58;;
25731;SDS011;13585;50.864;4.406;2023-07-13T05:34:31;5.70;;;1.88;;
25731;SDS011;13585;50.864;4.406;2023-07-13T05:36:56;6.82;;;1.60;;
25731;SDS011;13585;50.864;4.406;2023-07-13T05:39:22;7.55;;;1.73;;
25731;SDS011;13585;50.864;4.406;2023-07-13T05:41:47;7.30;;;1.70;;
25731;SDS011;13585;50.864;4.406;2023-07-13T05:44:13;5.97;;;1.85;;
25731;SDS011;13585;50.864;4.406;2023-07-13T05:46:39;10.15;;;1.63;;
25731;SDS011;13585;50.864;4.406;2023-07-13T05:49:04;5.15;;;2.00;;
25731;SDS011;13585;50.864;4.406;2023-07-13T05:51:39;10.63;;;2.03;;
25731;SDS011;13585;50.864;4.406;2023-07-13T05:54:26;3.25;;;1.48;;
25731;SDS011;13585;50.864;4.406;2023-07-13T05:57:01;6.78;;;1.70;;
25731;SDS011;13585;50.864;4.406;2023-07-13T05:59:42;7.65;;;1.92;;
25731;SDS011;13585;50.864;4.406;2023-07-13T06:02:08;6.47;;;1.50;;
25731;SDS011;13585;50.864;4.406;2023-07-13T06:04:50;5.45;;;1.80;;
25731;SDS011;13585;50.864;4.406;2023-07-13T06:07:16;8.20;;;2.20;;
25731;SDS011;13585;50.864;4.406;2023-07-13T06:10:04;8.32;;;1.95;;
25731;SDS011;13585;50.864;4.406;2023-07-13T06:12:42;7.57;;;1.63;;
25731;SDS011;13585;50.864;4.406;2023-07-13T06:20:30;6.82;;;1.80;;
25731;SDS011;13585;50.864;4.406;2023-07-13T06:22:58;6.82;;;1.80;;
25731;SDS011;13585;50.864;4.406;2023-07-13T06:25:26;9.27;;;2.00;;
25731;SDS011;13585;50.864;4.406;2023-07-13T06:27:59;7.72;;;1.77;;
25731;SDS011;13585;50.864;4.406;2023-07-13T06:32:51;8.15;;;1.88;;
25731;SDS011;13585;50.864;4.406;2023-07-13T06:35:16;7.88;;;1.70;;
25731;SDS011;13585;50.864;4.406;2023-07-13T06:37:42;9.73;;;1.90;;
25731;SDS011;13585;50.864;4.406;2023-07-13T06:40:08;6.30;;;1.65;;
25731;SDS011;13585;50.864;4.406;2023-07-13T06:42:35;6.45;;;2.08;;
25731;SDS011;13585;50.864;4.406;2023-07-13T06:45:00;7.82;;;1.85;;
25731;SDS011;13585;50.864;4.406;2023-07-13T06:47:26;5.43;;;1.60;;
25731;SDS011;13585;50.864;4.406;2023-07-13T06:49:52;5.47;;;1.80;;
25731;SDS011;13585;50.864;4.406;2023-07-13T06:52:18;7.82;;;2.00;;
25731;SDS011;13585;50.864;4.406;2023-07-13T06:54:46;8.02;;;1.88;;
25731;SDS011;13585;50.864;4.406;2023-07-13T06:57:11;7.30;;;1.73;;
25731;SDS011;13585;50.864;4.406;2023-07-13T06:59:37;5.30;;;1.50;;
25731;SDS011;13585;50.864;4.406;2023-07-13T07:02:02;6.70;;;1.90;;
25731;SDS011;13585;50.864;4.406;2023-07-13T07:04:28;7.03;;;1.85;;
25731;SDS011;13585;50.864;4.406;2023-07-13T07:06:54;9.73;;;1.98;;
25731;SDS011;13585;50.864;4.406;2023-07-13T07:09:20;8.27;;;1.95;;
25731;SDS011;13585;50.864;4.406;2023-07-13T07:11:45;6.25;;;1.58;;
25731;SDS011;13585;50.864;4.406;2023-07-13T07:14:17;4.97;;;1.70;;
25731;SDS011;13585;50.864;4.406;2023-07-13T07:16:49;6.28;;;1.83;;
25731;SDS011;13585;50.864;4.406;2023-07-13T07:19:15;6.57;;;1.85;;
25731;SDS011;13585;50.864;4.406;2023-07-13T07:21:41;6.15;;;1.73;;
25731;SDS011;13585;50.864;4.406;2023-07-13T07:24:07;8.15;;;2.00;;
25731;SDS011;13585;50.864;4.406;2023-07-13T07:26:32;5.32;;;1.83;;
25731;SDS011;13585;50.864;4.406;2023-07-13T07:28:58;6.90;;;1.83;;
25731;SDS011;13585;50.864;4.406;2023-07-13T07:31:24;6.75;;;1.80;;
25731;SDS011;13585;50.864;4.406;2023-07-13T07:33:53;6.35;;;2.05;;
25731;SDS011;13585;50.864;4.406;2023-07-13T07:36:34;6.28;;;1.70;;
25731;SDS011;13585;50.864;4.406;2023-07-13T07:39:05;8.32;;;1.80;;
25731;SDS011;13585;50.864;4.406;2023-07-13T07:41:36;7.38;;;2.17;;
25731;SDS011;13585;50.864;4.406;2023-07-13T07:44:02;8.13;;;2.33;;
25731;SDS011;13585;50.864;4.406;2023-07-13T07:46:28;9.07;;;1.90;;
25731;SDS011;13585;50.864;4.406;2023-07-13T07:48:54;2.58;;;1.63;;
25731;SDS011;13585;50.864;4.406;2023-07-13T07:51:20;9.93;;;1.70;;
25731;SDS011;13585;50.864;4.406;2023-07-13T07:53:46;7.28;;;1.73;;
25731;SDS011;13585;50.864;4.406;2023-07-13T07:56:12;5.22;;;1.77;;
25731;SDS011;13585;50.864;4.406;2023-07-13T07:58:38;7.13;;;2.00;;
25731;SDS011;13585;50.864;4.406;2023-07-13T08:01:04;5.50;;;1.65;;
25731;SDS011;13585;50.864;4.406;2023-07-13T08:03:31;6.95;;;1.70;;
25731;SDS011;13585;50.864;4.406;2023-07-13T08:05:56;5.00;;;1.70;;
25731;SDS011;13585;50.864;4.406;2023-07-13T08:08:22;5.63;;;1.50;;
25731;SDS011;13585;50.864;4.406;2023-07-13T08:10:48;5.88;;;1.75;;
25731;SDS011;13585;50.864;4.406;2023-07-13T08:13:13;6.07;;;1.80;;
25731;SDS011;13585;50.864;4.406;2023-07-13T08:15:39;8.15;;;2.00;;
25731;SDS011;13585;50.864;4.406;2023-07-13T08:18:05;4.60;;;1.60;;
25731;SDS011;13585;50.864;4.406;2023-07-13T08:20:32;5.13;;;1.65;;
25731;SDS011;13585;50.864;4.406;2023-07-13T08:22:58;5.28;;;1.73;;
25731;SDS011;13585;50.864;4.406;2023-07-13T08:25:24;4.60;;;1.42;;
25731;SDS011;13585;50.864;4.406;2023-07-13T08:27:49;4.85;;;1.75;;
25731;SDS011;13585;50.864;4.406;2023-07-13T08:30:15;7.85;;;2.15;;
25731;SDS011;13585;50.864;4.406;2023-07-13T08:32:40;5.65;;;1.80;;
25731;SDS011;13585;50.864;4.406;2023-07-13T08:35:06;4.45;;;1.70;;
25731;SDS011;13585;50.864;4.406;2023-07-13T08:37:47;5.45;;;1.48;;
25731;SDS011;13585;50.864;4.406;2023-07-13T08:40:13;5.15;;;1.65;;
25731;SDS011;13585;50.864;4.406;2023-07-13T08:42:55;4.97;;;1.67;;
25731;SDS011;13585;50.864;4.406;2023-07-13T08:49:04;6.30;;;1.98;;
25731;SDS011;13585;50.864;4.406;2023-07-13T08:51:49;6.85;;;1.55;;
25731;SDS011;13585;50.864;4.406;2023-07-13T08:58:45;9.05;;;2.00;;
25731;SDS011;13585;50.864;4.406;2023-07-13T09:04:27;4.15;;;1.77;;
25731;SDS011;13585;50.864;4.406;2023-07-13T09:16:12;3.80;;;1.50;;
25731;SDS011;13585;50.864;4.406;2023-07-13T09:22:11;5.15;;;1.83;;
25731;SDS011;13585;50.864;4.406;2023-07-13T09:27:18;3.85;;;1.30;;
25731;SDS011;13585;50.864;4.406;2023-07-13T09:32:42;4.45;;;1.42;;
25731;SDS011;13585;50.864;4.406;2023-07-13T09:35:12;3.65;;;1.48;;
25731;SDS011;13585;50.864;4.406;2023-07-13T09:37:44;5.35;;;1.40;;
25731;SDS011;13585;50.864;4.406;2023-07-13T09:40:13;4.70;;;1.60;;
25731;SDS011;13585;50.864;4.406;2023-07-13T09:42:50;3.90;;;1.35;;
25731;SDS011;13585;50.864;4.406;2023-07-13T09:45:26;2.78;;;1.40;;
25731;SDS011;13585;50.864;4.406;2023-07-13T09:48:04;3.97;;;1.48;;
25731;SDS011;13585;50.864;4.406;2023-07-13T09:50:31;5.85;;;1.60;;
25731;SDS011;13585;50.864;4.406;2023-07-13T09:52:57;4.47;;;1.30;;
25731;SDS011;13585;50.864;4.406;2023-07-13T09:55:26;4.15;;;1.50;;
25731;SDS011;13585;50.864;4.406;2023-07-13T09:57:54;2.60;;;1.60;;
25731;SDS011;13585;50.864;4.406;2023-07-13T10:00:21;2.90;;;1.27;;
25731;SDS011;13585;50.864;4.406;2023-07-13T10:02:57;3.33;;;1.40;;
25731;SDS011;13585;50.864;4.406;2023-07-13T10:05:33;4.00;;;1.35;;
25731;SDS011;13585;50.864;4.406;2023-07-13T10:08:03;5.00;;;1.42;;
25731;SDS011;13585;50.864;4.406;2023-07-13T10:10:39;3.03;;;1.40;;
25731;SDS011;13585;50.864;4.406;2023-07-13T10:13:08;4.65;;;1.48;;
25731;SDS011;13585;50.864;4.406;2023-07-13T10:15:50;3.47;;;1.30;;
25731;SDS011;13585;50.864;4.406;2023-07-13T10:18:16;3.85;;;1.58;;
25731;SDS011;13585;50.864;4.406;2023-07-13T10:20:43;5.40;;;1.60;;
25731;SDS011;13585;50.864;4.406;2023-07-13T10:23:11;3.80;;;1.40;;
25731;SDS011;13585;50.864;4.406;2023-07-13T10:25:45;3.17;;;1.30;;
25731;SDS011;13585;50.864;4.406;2023-07-13T10:28:25;5.63;;;1.80;;
25731;SDS011;13585;50.864;4.406;2023-07-13T10:30:55;2.45;;;1.10;;
25731;SDS011;13585;50.864;4.406;2023-07-13T10:33:23;3.50;;;1.30;;
25731;SDS011;13585;50.864;4.406;2023-07-13T10:35:49;3.67;;;1.40;;
25731;SDS011;13585;50.864;4.406;2023-07-13T10:38:22;3.85;;;1.40;;
25731;SDS011;13585;50.864;4.406;2023-07-13T10:43:46;4.25;;;1.20;;
25731;SDS011;13585;50.864;4.406;2023-07-13T10:46:16;3.30;;;1.50;;
25731;SDS011;13585;50.864;4.406;2023-07-13T10:48:44;4.43;;;1.45;;
25731;SDS011;13585;50.864;4.406;2023-07-13T10:51:14;3.67;;;1.17;;
25731;SDS011;13585;50.864;4.406;2023-07-13T10:53:42;3.55;;;1.30;;
25731;SDS011;13585;50.864;4.406;2023-07-13T10:56:28;2.85;;;1.30;;
25731;SDS011;13585;50.864;4.406;2023-07-13T11:04:21;2.58;;;1.10;;
25731;SDS011;13585;50.864;4.406;2023-07-13T11:06:50;4.75;;;1.30;;
25731;SDS011;13585;50.864;4.406;2023-07-13T11:12:08;4.40;;;1.60;;
25731;SDS011;13585;50.864;4.406;2023-07-13T11:36:13;3.35;;;1.42;;
25731;SDS011;13585;50.864;4.406;2023-07-13T11:44:26;2.33;;;1.50;;
25731;SDS011;13585;50.864;4.406;2023-07-13T11:47:20;3.30;;;1.20;;
25731;SDS011;13585;50.864;4.406;2023-07-13T11:50:05;4.90;;;1.40;;
25731;SDS011;13585;50.864;4.406;2023-07-13T11:52:35;4.28;;;1.40;;
25731;SDS011;13585;50.864;4.406;2023-07-13T11:55:03;3.67;;;1.40;;
25731;SDS011;13585;50.864;4.406;2023-07-13T11:57:39;3.42;;;1.17;;
25731;SDS011;13585;50.864;4.406;2023-07-13T12:00:25;4.32;;;1.30;;
25731;SDS011;13585;50.864;4.406;2023-07-13T12:02:56;5.43;;;1.48;;
25731;SDS011;13585;50.864;4.406;2023-07-13T12:05:24;4.70;;;1.30;;
25731;SDS011;13585;50.864;4.406;2023-07-13T12:07:50;3.25;;;1.13;;
25731;SDS011;13585;50.864;4.406;2023-07-13T12:10:23;3.42;;;1.20;;
25731;SDS011;13585;50.864;4.406;2023-07-13T12:12:52;3.35;;;1.48;;
25731;SDS011;13585;50.864;4.406;2023-07-13T12:15:21;3.47;;;1.08;;
25731;SDS011;13585;50.864;4.406;2023-07-13T12:17:47;1.92;;;1.02;;
25731;SDS011;13585;50.864;4.406;2023-07-13T12:20:20;2.85;;;1.30;;
25731;SDS011;13585;50.864;4.406;2023-07-13T12:22:49;3.80;;;1.27;;
25731;SDS011;13585;50.864;4.406;2023-07-13T12:25:15;3.38;;;1.58;;
25731;SDS011;13585;50.864;4.406;2023-07-13T12:27:48;2.20;;;1.08;;
25731;SDS011;13585;50.864;4.406;2023-07-13T12:32:56;1.48;;;1.10;;
25731;SDS011;13585;50.864;4.406;2023-07-13T12:35:29;4.22;;;1.35;;
25731;SDS011;13585;50.864;4.406;2023-07-13T12:37:57;2.25;;;1.38;;
25731;SDS011;13585;50.864;4.406;2023-07-13T12:40:26;2.85;;;1.20;;
25731;SDS011;13585;50.864;4.406;2023-07-13T12:42:57;2.35;;;1.15;;
25731;SDS011;13585;50.864;4.406;2023-07-13T12:45:27;3.42;;;1.35;;
25731;SDS011;13585;50.864;4.406;2023-07-13T12:47:59;2.40;;;1.15;;
25731;SDS011;13585;50.864;4.406;2023-07-13T12:50:40;2.88;;;1.23;;
25731;SDS011;13585;50.864;4.406;2023-07-13T12:53:11;3.50;;;1.30;;
25731;SDS011;13585;50.864;4.406;2023-07-13T12:55:58;2.25;;;1.10;;
25731;SDS011;13585;50.864;4.406;2023-07-13T12:58:31;2.60;;;1.08;;
25731;SDS011;13585;50.864;4.406;2023-07-13T13:01:05;3.33;;;1.23;;
25731;SDS011;13585;50.864;4.406;2023-07-13T13:03:38;3.03;;;1.10;;
25731;SDS011;13585;50.864;4.406;2023-07-13T13:06:17;3.58;;;1.73;;
25731;SDS011;13585;50.864;4.406;2023-07-13T13:08:52;5.25;;;1.45;;
25731;SDS011;13585;50.864;4.406;2023-07-13T13:11:23;2.00;;;1.15;;
25731;SDS011;13585;50.864;4.406;2023-07-13T13:13:51;2.38;;;1.20;;
25731;SDS011;13585;50.864;4.406;2023-07-13T13:18:47;2.55;;;1.30;;
25731;SDS011;13585;50.864;4.406;2023-07-13T13:21:14;4.53;;;1.30;;
25731;SDS011;13585;50.864;4.406;2023-07-13T13:23:40;2.30;;;1.10;;
25731;SDS011;13585;50.864;4.406;2023-07-13T13:26:10;3.22;;;1.20;;
25731;SDS011;13585;50.864;4.406;2023-07-13T13:28:37;3.03;;;1.15;;
25731;SDS011;13585;50.864;4.406;2023-07-13T13:31:03;5.10;;;1.30;;
25731;SDS011;13585;50.864;4.406;2023-07-13T13:33:29;1.98;;;1.20;;
25731;SDS011;13585;50.864;4.406;2023-07-13T13:35:55;2.28;;;1.35;;
25731;SDS011;13585;50.864;4.406;2023-07-13T13:38:27;2.33;;;1.15;;
25731;SDS011;13585;50.864;4.406;2023-07-13T13:40:57;2.83;;;1.20;;
25731;SDS011;13585;50.864;4.406;2023-07-13T13:43:24;4.60;;;1.20;;
25731;SDS011;13585;50.864;4.406;2023-07-13T13:45:52;3.13;;;1.38;;
25731;SDS011;13585;50.864;4.406;2023-07-13T13:48:25;2.65;;;1.20;;
25731;SDS011;13585;50.864;4.406;2023-07-13T13:50:57;2.78;;;1.15;;
25731;SDS011;13585;50.864;4.406;2023-07-13T13:53:23;2.67;;;1.00;;
25731;SDS011;13585;50.864;4.406;2023-07-13T13:55:49;3.22;;;1.30;;
25731;SDS011;13585;50.864;4.406;2023-07-13T13:58:17;3.85;;;1.33;;
25731;SDS011;13585;50.864;4.406;2023-07-13T14:00:42;1.35;;;0.95;;
25731;SDS011;13585;50.864;4.406;2023-07-13T14:03:19;1.55;;;1.08;;
25731;SDS011;13585;50.864;4.406;2023-07-13T14:05:46;4.18;;;1.50;;
25731;SDS011;13585;50.864;4.406;2023-07-13T14:08:16;2.38;;;1.10;;
25731;SDS011;13585;50.864;4.406;2023-07-13T14:10:44;2.13;;;1.30;;
25731;SDS011;13585;50.864;4.406;2023-07-13T14:13:16;1.42;;;0.93;;
25731;SDS011;13585;50.864;4.406;2023-07-13T14:15:44;2.38;;;1.17;;
25731;SDS011;13585;50.864;4.406;2023-07-13T14:18:10;2.80;;;1.40;;
25731;SDS011;13585;50.864;4.406;2023-07-13T14:20:36;2.00;;;1.10;;
25731;SDS011;13585;50.864;4.406;2023-07-13T14:23:02;2.20;;;1.15;;
25731;SDS011;13585;50.864;4.406;2023-07-13T14:25:31;2.95;;;1.17;;
25731;SDS011;13585;50.864;4.406;2023-07-13T14:27:58;1.50;;;1.10;;
25731;SDS011;13585;50.864;4.406;2023-07-13T14:30:26;2.42;;;1.10;;
25731;SDS011;13585;50.864;4.406;2023-07-13T14:32:52;2.75;;;1.13;;
25731;SDS011;13585;50.864;4.406;2023-07-13T14:35:21;2.38;;;0.90;;
25731;SDS011;13585;50.864;4.406;2023-07-13T14:37:48;2.50;;;1.13;;
25731;SDS011;13585;50.864;4.406;2023-07-13T14:40:14;2.65;;;1.10;;
25731;SDS011;13585;50.864;4.406;2023-07-13T14:42:42;5.53;;;1.00;;
25731;SDS011;13585;50.864;4.406;2023-07-13T14:45:14;1.75;;;1.02;;
25731;SDS011;13585;50.864;4.406;2023-07-13T14:47:40;3.92;;;1.17;;
25731;SDS011;13585;50.864;4.406;2023-07-13T14:50:18;2.63;;;1.35;;
25731;SDS011;13585;50.864;4.406;2023-07-13T14:52:52;1.67;;;1.10;;
25731;SDS011;13585;50.864;4.406;2023-07-13T14:55:18;1.55;;;0.90;;
25731;SDS011;13585;50.864;4.406;2023-07-13T14:57:44;4.95;;;1.20;;
25731;SDS011;13585;50.864;4.406;2023-07-13T15:00:14;4.03;;;1.33;;
25731;SDS011;13585;50.864;4.406;2023-07-13T15:02:45;4.60;;;1.52;;
25731;SDS011;13585;50.864;4.406;2023-07-13T15:05:15;1.73;;;1.00;;
25731;SDS011;13585;50.864;4.406;2023-07-13T15:07:43;2.85;;;1.17;;
25731;SDS011;13585;50.864;4.406;2023-07-13T15:10:28;3.97;;;1.10;;
25731;SDS011;13585;50.864;4.406;2023-07-13T15:12:58;2.63;;;1.10;;
25731;SDS011;13585;50.864;4.406;2023-07-13T15:15:26;1.83;;;1.17;;
25731;SDS011;13585;50.864;4.406;2023-07-13T15:17:58;2.67;;;1.30;;
25731;SDS011;13585;50.864;4.406;2023-07-13T15:20:29;1.60;;;1.10;;
25731;SDS011;13585;50.864;4.406;2023-07-13T15:23:03;2.63;;;1.25;;
25731;SDS011;13585;50.864;4.406;2023-07-13T15:25:29;2.45;;;1.20;;
25731;SDS011;13585;50.864;4.406;2023-07-13T15:27:58;3.10;;;1.17;;
25731;SDS011;13585;50.864;4.406;2023-07-13T15:30:28;1.92;;;1.10;;
25731;SDS011;13585;50.864;4.406;2023-07-13T15:32:58;1.57;;;1.00;;
25731;SDS011;13585;50.864;4.406;2023-07-13T15:35:33;1.88;;;0.93;;
25731;SDS011;13585;50.864;4.406;2023-07-13T15:37:59;2.75;;;1.33;;
25731;SDS011;13585;50.864;4.406;2023-07-13T15:40:24;3.53;;;1.10;;
25731;SDS011;13585;50.864;4.406;2023-07-13T15:42:50;1.77;;;1.20;;
25731;SDS011;13585;50.864;4.406;2023-07-13T15:45:18;2.28;;;1.33;;
25731;SDS011;13585;50.864;4.406;2023-07-13T15:47:46;2.67;;;1.23;;
25731;SDS011;13585;50.864;4.406;2023-07-13T15:50:17;2.45;;;1.10;;
25731;SDS011;13585;50.864;4.406;2023-07-13T15:52:45;1.90;;;1.20;;
25731;SDS011;13585;50.864;4.406;2023-07-13T15:55:14;1.42;;;1.00;;
25731;SDS011;13585;50.864;4.406;2023-07-13T15:57:47;5.13;;;1.20;;
25731;SDS011;13585;50.864;4.406;2023-07-13T16:02:48;2.60;;;1.30;;
25731;SDS011;13585;50.864;4.406;2023-07-13T16:05:15;2.88;;;1.20;;
25731;SDS011;13585;50.864;4.406;2023-07-13T16:07:42;2.10;;;1.17;;
25731;SDS011;13585;50.864;4.406;2023-07-13T16:10:12;1.95;;;1.00;;
25731;SDS011;13585;50.864;4.406;2023-07-13T16:12:40;2.53;;;1.30;;
25731;SDS011;13585;50.864;4.406;2023-07-13T16:15:10;2.97;;;1.23;;
25731;SDS011;13585;50.864;4.406;2023-07-13T16:17:38;4.43;;;1.30;;
25731;SDS011;13585;50.864;4.406;2023-07-13T16:20:16;1.92;;;1.00;;